Latest Weather Observations for Toowoomba

IDQ60801

Issued at 8:02 pm EST Wednesday 28 September 2016 (issued every 30 minutes, with the page automatically refreshed every 10 minutes)

About weather observations | Map of weather stations | Latest weather observations for QLD | Other Formats
Station Details ID: 041529 Name: TOOWOOMBA AIRPORT Lat: -27.54 Lon: 151.91 Height: 640.9 m
Data from the previous 72 hours. | See also: Recent months at Toowoomba
Date/Time
EST
Temp
°C
App
Temp
°C
Dew
Point
°C
Rel
Hum
%
Delta-T
°C
Wind Press
QNH
hPa
Press
MSL
hPa
Rain since
9am
mm
Dir  Spd
km/h
Gust
km/h
Spd
kts
Gust
kts
28/08:00pm 15.5 11.1 9.0 65 3.4 E 22 28 12 15 1014.5 1012.7 0.0
28/07:30pm 17.0 15.0 7.1 52 5.1 E 7 9 4 5 1014.0 1012.1 0.0
28/07:00pm 18.0 17.3 6.8 48 5.8 CALM 0 0 0 0 1014.0 1012.1 0.0
28/06:30pm 18.8 17.5 6.0 43 6.5 SW 2 6 1 3 1014.1 1012.2 0.0
28/06:00pm 19.4 17.2 5.1 39 7.2 WSW 6 7 3 4 1013.9 1012.0 0.0
28/05:30pm 19.6 17.1 4.5 37 7.5 SW 7 11 4 6 1013.7 1011.8 0.0
28/05:00pm 20.1 17.4 5.4 38 7.5 SW 9 13 5 7 1013.6 1011.7 0.0
28/04:30pm 20.7 17.0 4.7 35 8.1 WSW 13 19 7 10 1013.6 1011.7 0.0
28/04:00pm 21.4 17.4 4.9 34 8.4 WNW 15 22 8 12 1013.3 1011.5 0.0
28/03:30pm 21.9 17.6 5.3 34 8.5 WSW 17 24 9 13 1013.1 1011.3 0.0
28/03:00pm 22.1 17.6 6.3 36 8.3 SSW 19 28 10 15 1013.3 1011.5 0.0
28/02:30pm 21.9 17.0 5.3 34 8.5 WSW 20 30 11 16 1013.9 1012.0 0.0
28/02:00pm 21.9 16.7 5.3 34 8.5 SW 22 33 12 18 1014.3 1012.4 0.0
28/01:30pm 21.4 16.5 6.9 39 7.6 SW 22 33 12 18 1014.6 1012.8 0.0
28/01:00pm 21.9 17.2 6.2 36 8.2 WSW 20 35 11 19 1015.4 1013.5 0.0
28/12:30pm 21.3 15.8 7.5 41 7.4 SW 26 35 14 19 1015.7 1013.8 0.0
28/12:00pm 21.2 15.9 6.7 39 7.6 SW 24 32 13 17 1015.9 1014.1 0.0
28/11:30am 20.5 15.0 6.1 39 7.4 SSW 24 35 13 19 1016.2 1014.4 0.0
28/11:00am 20.0 15.7 7.7 45 6.5 WSW 20 30 11 16 1016.9 1015.0 0.0
28/10:30am 19.4 15.8 8.4 49 5.9 WSW 17 26 9 14 1017.1 1015.2 0.0
28/10:00am 18.9 16.4 8.3 50 5.6 WSW 11 22 6 12 1017.4 1015.6 0.0
28/09:30am 18.1 14.9 6.9 48 5.8 SW 13 19 7 10 1017.4 1015.6 0.0
28/09:00am 17.3 14.9 6.8 50 5.4 SW 9 15 5 8 1017.3 1015.5 0.0
28/08:30am 16.1 13.7 6.8 54 4.7 SW 9 13 5 7 1017.2 1015.4 0.0
28/08:00am 14.9 12.7 6.0 55 4.4 W 7 11 4 6 1017.1 1015.2 0.0
28/07:30am 13.6 11.0 6.2 61 3.7 NNW 9 13 5 7 1016.7 1014.9 0.0
28/07:00am 12.5 10.2 5.7 63 3.3 NNW 7 11 4 6 1016.3 1014.5 0.0
28/06:30am 11.4 8.3 5.7 68 2.7 NNW 11 13 6 7 1016.0 1014.2 0.0
28/06:00am 9.6 6.7 4.8 72 2.2 NW 9 11 5 6 1015.5 1013.6 0.0
28/05:30am 8.9 5.6 4.7 75 1.9 NW 11 11 6 6 1015.3 1013.4 0.0
28/05:00am 9.2 5.8 4.2 71 2.3 WNW 11 13 6 7 1014.8 1013.0 0.0
28/04:30am 9.3 5.6 4.3 71 2.3 WNW 13 13 7 7 1014.6 1012.8 0.0
28/04:00am 9.3 6.0 4.3 71 2.3 NW 11 15 6 8 1014.4 1012.5 0.0
28/03:30am 9.7 5.9 3.9 67 2.6 WNW 13 15 7 8 1014.1 1012.2 0.0
28/03:00am 10.5 7.5 4.0 64 3.0 WNW 9 13 5 7 1014.1 1012.2 0.0
28/02:30am 10.6 6.8 4.1 64 3.0 W 13 15 7 8 1014.1 1012.2 0.0
28/02:00am 10.3 6.5 3.8 64 3.0 W 13 15 7 8 1014.3 1012.4 0.0
28/01:30am 10.3 6.4 3.6 63 3.1 W 13 17 7 9 1014.6 1012.8 0.0
28/01:00am 11.3 6.7 3.8 60 3.5 WNW 17 22 9 12 1014.9 1013.1 0.0
28/12:30am 11.1 7.2 3.4 59 3.5 WNW 13 17 7 9 1015.1 1013.3 0.0
28/12:00am 12.0 7.7 3.3 55 4.0 WNW 15 20 8 11 1015.4 1013.5 0.0
 
Date/Time
EST
Temp
°C
App
Temp
°C
Dew
Point
°C
Rel
Hum
%
Delta-T
°C
Wind Press
QNH
hPa
Press
MSL
hPa
Rain since
9am
mm
Dir  Spd
km/h
Gust
km/h
Spd
kts
Gust
kts
27/11:30pm 11.9 8.0 3.4 56 3.9 W 13 17 7 9 1015.5 1013.6 0.0
27/11:00pm 13.5 8.9 3.6 51 4.6 WNW 17 24 9 13 1015.6 1013.7 0.0
27/10:30pm 14.6 9.6 3.7 48 5.2 W 19 26 10 14 1015.7 1013.8 0.0
27/10:00pm 15.5 9.9 3.6 45 5.6 WSW 22 30 12 16 1015.9 1014.1 0.0
27/09:30pm 14.6 9.9 3.4 47 5.3 WSW 17 24 9 13 1016.1 1014.3 0.0
27/09:00pm 14.5 9.4 3.3 47 5.2 WSW 19 22 10 12 1016.2 1014.4 0.0
27/08:30pm 14.4 9.3 3.2 47 5.2 WSW 19 26 10 14 1016.3 1014.5 0.0
27/08:00pm 14.7 9.4 3.2 46 5.4 WSW 20 24 11 13 1016.4 1014.6 0.0
27/07:30pm 15.1 10.4 3.3 45 5.6 WSW 17 22 9 12 1016.2 1014.4 0.0
27/07:00pm 15.5 10.2 3.0 43 5.9 WSW 20 26 11 14 1016.1 1014.3 0.0
27/06:30pm 15.6 10.4 2.7 42 6.0 WSW 19 24 10 13 1015.9 1014.1 0.0
27/06:00pm 16.7 11.2 2.0 37 6.8 WSW 20 28 11 15 1015.5 1013.6 0.0
27/05:30pm 17.9 12.0 1.4 33 7.6 WSW 22 30 12 16 1015.1 1013.3 0.0
27/05:00pm 18.7 12.3 1.2 31 8.1 WSW 24 33 13 18 1014.9 1013.1 0.0
27/04:30pm 19.1 11.8 0.2 28 8.6 WSW 28 39 15 21 1014.8 1013.0 0.0
27/04:00pm 19.6 13.4 2.0 31 8.3 WSW 24 33 13 18 1014.7 1012.9 0.0
27/03:30pm 20.0 12.7 2.4 31 8.4 WSW 30 39 16 21 1014.7 1012.9 0.0
27/03:00pm 19.5 12.6 2.8 33 8.0 WSW 28 39 15 21 1014.6 1012.8 0.0
27/02:30pm 19.4 12.9 2.7 33 8.0 SW 26 39 14 21 1015.1 1013.3 0.0
27/02:00pm 19.9 13.3 2.3 31 8.4 SW 26 39 14 21 1015.0 1013.2 0.0
27/01:31pm 19.1 12.2 2.5 33 7.9 SW 28 50 15 27 1015.4 1013.5 0.0
27/01:30pm 19.0 12.4 2.0 32 8.0 SW 26 50 14 27 1015.4 1013.5 0.0
27/01:23pm 18.9 12.3 1.9 32 8.0 WSW 26 50 14 27 1015.6 1013.7 0.0
27/01:00pm 18.9 11.6 2.7 34 7.7 WSW 30 39 16 21 1016.1 1014.3 0.0
27/12:30pm 18.3 11.2 3.8 38 7.1 WSW 30 44 16 24 1016.4 1014.6 0.0
27/12:00pm 18.3 12.8 7.4 49 5.7 WSW 26 35 14 19 1016.6 1014.8 0.0
27/11:30am 16.1 10.8 5.1 48 5.4 WSW 22 35 12 19 1017.1 1015.2 0.0
27/11:00am 16.0 10.8 5.6 50 5.2 WSW 22 32 12 17 1017.6 1015.8 0.0
27/10:30am 14.8 9.6 5.3 53 4.6 WSW 22 32 12 17 1017.9 1016.1 0.0
27/10:00am 14.3 8.7 5.4 55 4.3 SW 24 33 13 18 1018.1 1016.3 0.0
27/09:30am 13.8 8.1 4.7 54 4.4 SW 24 35 13 19 1018.6 1016.8 0.0
27/09:00am 12.8 7.3 4.0 55 4.1 WSW 22 30 12 16 1018.3 1016.5 0.0
27/08:30am 11.5 6.1 4.5 62 3.3 WSW 22 30 12 16 1018.4 1016.6 0.0
27/08:00am 11.1 6.0 4.1 62 3.2 SW 20 32 11 17 1018.3 1016.5 0.0
27/07:30am 10.4 5.5 5.0 69 2.5 SW 20 30 11 16 1017.8 1016.0 0.0
27/07:00am 10.7 4.9 4.4 65 2.9 SW 24 35 13 19 1017.7 1015.9 0.0
27/06:30am 10.3 4.9 4.7 68 2.6 SSW 22 28 12 15 1016.9 1015.0 0.0
27/06:00am 9.3 4.9 4.7 73 2.1 SW 17 28 9 15 1016.6 1014.8 0.0
27/05:30am 8.6 4.7 5.4 80 1.5 WSW 15 22 8 12 1016.6 1014.8 0.0
27/05:00am 8.4 4.5 5.3 81 1.4 SW 15 24 8 13 1015.7 1013.8 0.0
27/04:30am 8.5 4.5 5.1 79 1.6 WSW 15 19 8 10 1015.6 1013.7 0.0
27/04:00am 9.6 4.9 5.0 73 2.1 SW 19 26 10 14 1015.3 1013.4 0.0
27/03:30am 8.8 4.5 5.2 78 1.7 SW 17 24 9 13 1015.1 1013.3 0.0
27/03:00am 9.3 4.6 5.1 75 2.0 SW 19 24 10 13 1015.3 1013.4 0.0
27/02:30am 10.2 5.5 5.0 70 2.4 SW 19 26 10 14 1014.8 1013.0 0.0
27/02:00am 10.2 5.6 5.4 72 2.3 WSW 19 22 10 12 1015.6 1013.7 0.0
27/01:30am 10.1 5.9 5.9 75 2.0 WSW 17 20 9 11 1015.9 1014.1 0.0
27/01:00am 10.3 5.8 6.3 76 1.9 WSW 19 24 10 13 1016.2 1014.4 0.0
27/12:30am 10.8 6.2 6.6 75 2.1 WSW 20 24 11 13 1016.4 1014.6 0.0
27/12:00am 11.2 6.8 6.5 73 2.3 WSW 19 26 10 14 1016.2 1014.4 0.0
 
Date/Time
EST
Temp
°C
App
Temp
°C
Dew
Point
°C
Rel
Hum
%
Delta-T
°C
Wind Press
QNH
hPa
Press
MSL
hPa
Rain since
9am
mm
Dir  Spd
km/h
Gust
km/h
Spd
kts
Gust
kts
26/11:30pm 11.7 7.3 6.6 71 2.5 WSW 19 26 10 14 1016.5 1014.7 0.0
26/11:00pm 12.1 7.5 6.6 69 2.7 WSW 20 28 11 15 1016.3 1014.5 0.0
26/10:30pm 12.9 8.0 6.7 66 3.1 SW 22 30 12 16 1016.4 1014.6 0.0
26/10:00pm 13.3 8.8 6.9 65 3.2 SW 20 30 11 16 1016.7 1014.9 0.0
26/09:30pm 13.2 8.7 6.3 63 3.4 WSW 19 22 10 12 1016.6 1014.8 0.0
26/09:00pm 13.6 9.1 6.0 60 3.7 WSW 19 22 10 12 1016.7 1014.9 0.0
26/08:30pm 14.2 9.6 5.8 57 4.1 WSW 19 24 10 13 1016.1 1014.3 0.0
26/08:00pm 14.5 10.3 5.8 56 4.3 WSW 17 22 9 12 1015.8 1014.0 0.0
26/07:30pm 14.7 10.6 6.0 56 4.3 WSW 17 24 9 13 1015.6 1013.7 0.0
26/07:00pm 15.3 11.2 6.3 55 4.5 WSW 17 20 9 11 1014.8 1013.0 0.0
26/06:30pm 15.5 11.8 6.2 54 4.7 WSW 15 19 8 10 1014.6 1012.8 0.0
26/06:00pm 16.0 12.2 5.9 51 5.0 WSW 15 19 8 10 1014.2 1012.3 0.0
26/05:30pm 17.2 12.4 5.5 46 5.8 WSW 20 28 11 15 1014.0 1012.1 0.0
26/05:00pm 18.9 14.5 6.7 45 6.3 WSW 19 28 10 15 1013.8 1011.9 0.0
26/04:30pm 19.4 14.0 4.7 38 7.3 WSW 22 32 12 17 1013.7 1011.8 0.0
26/04:00pm 20.1 13.9 4.2 35 7.9 W 26 35 14 19 1013.6 1011.7 0.0
26/03:30pm 20.1 15.5 6.5 41 7.1 W 20 28 11 15 1013.3 1011.5 0.0
26/03:00pm 19.6 14.7 7.0 44 6.6 WSW 22 33 12 18 1013.3 1011.5 0.0
26/02:30pm 20.1 15.0 7.5 44 6.7 WSW 24 33 13 18 1013.6 1011.7 0.0
26/02:00pm 19.9 14.6 6.6 42 6.9 WSW 24 33 13 18 1013.9 1012.0 0.0
26/01:30pm 19.4 14.9 6.8 44 6.6 WSW 20 35 11 19 1014.0 1012.1 0.0
26/01:00pm 19.4 13.9 5.8 41 6.9 W 24 33 13 18 1014.5 1012.7 0.0
26/12:30pm 19.0 14.6 7.4 47 6.1 W 20 32 11 17 1014.7 1012.9 0.0
26/12:00pm 18.3 14.1 7.4 49 5.7 WSW 19 32 10 17 1015.3 1013.4 0.0
26/11:30am 18.0 13.5 6.2 46 6.0 WSW 19 28 10 15 1015.8 1014.0 0.0
26/11:00am 17.5 13.0 6.1 47 5.8 SW 19 26 10 14 1016.2 1014.4 0.0
26/10:30am 17.2 12.8 6.4 49 5.5 SW 19 26 10 14 1016.5 1014.7 0.0
26/10:00am 16.4 11.3 6.2 51 5.1 SW 22 28 12 15 1016.7 1014.9 0.0
26/09:30am 16.8 12.2 8.0 56 4.6 SW 22 30 12 16 1017.0 1015.1 0.0
26/09:00am 16.3 12.4 8.5 60 4.1 SW 19 30 10 16 1017.2 1015.4 0.2
26/08:30am 15.3 11.8 8.8 65 3.4 SSW 17 22 9 12 1017.1 1015.2 0.2
26/08:00am 14.2 11.7 9.6 74 2.4 SSW 13 17 7 9 1016.9 1015.0 0.2
26/07:30am 13.0 11.0 10.2 83 1.5 SSW 11 15 6 8 1016.4 1014.6 0.2
26/07:00am 11.6 9.9 9.7 88 1.0 SW 9 11 5 6 1016.0 1014.2 0.2
26/06:30am 10.2 8.8 9.6 96 0.3 SW 7 11 4 6 1015.4 1013.5 0.2
26/06:00am 9.1 7.5 8.6 97 0.3 WSW 7 13 4 7 1015.1 1013.3 0.2
26/05:30am 9.0 7.0 8.6 97 0.2 SW 9 13 5 7 1014.9 1013.1 0.2
26/05:00am 9.3 6.8 8.4 94 0.5 SW 11 15 6 8 1014.6 1012.8 0.2
26/04:30am 9.9 6.7 8.5 91 0.7 SW 15 19 8 10 1014.3 1012.4 0.2
26/04:00am 10.6 6.8 9.0 90 0.8 SSW 19 24 10 13 1014.1 1012.2 0.2
26/03:30am 9.7 6.5 8.6 93 0.6 WSW 15 22 8 12 1014.0 1012.1 0.2
26/03:00am 10.1 6.5 8.5 90 0.8 WSW 17 24 9 13 1014.0 1012.1 0.2
26/02:30am 10.4 6.9 8.7 89 0.9 SW 17 20 9 11 1013.9 1012.0 0.2
26/02:00am 10.3 6.7 8.4 88 1.0 WSW 17 20 9 11 1014.2 1012.3 0.2
26/01:30am 10.3 7.4 8.2 87 1.1 WSW 13 17 7 9 1014.2 1012.3 0.2
26/01:00am 10.6 7.7 8.0 84 1.3 WSW 13 17 7 9 1014.5 1012.7 0.2
26/12:30am 10.9 7.6 8.1 83 1.4 WSW 15 19 8 10 1014.6 1012.8 0.2
26/12:00am 11.4 8.2 8.3 81 1.6 WSW 15 20 8 11 1014.6 1012.8 0.2
 
Date/Time
EST
Temp
°C
App
Temp
°C
Dew
Point
°C
Rel
Hum
%
Delta-T
°C
Wind Press
QNH
hPa
Press
MSL
hPa
Rain since
9am
mm
Dir  Spd
km/h
Gust
km/h
Spd
kts
Gust
kts
25/11:30pm 12.1 7.9 8.2 77 2.0 WSW 20 24 11 13 1014.6 1012.8 0.2
25/11:00pm 12.5 8.8 8.0 74 2.3 WSW 17 22 9 12 1014.7 1012.9 0.2
25/10:30pm 12.6 8.8 7.7 72 2.5 WSW 17 22 9 12 1014.7 1012.9 0.2
25/10:00pm 12.7 9.6 7.4 70 2.7 WSW 13 20 7 11 1014.7 1012.9 0.2
25/09:30pm 13.5 9.6 7.3 66 3.1 WSW 17 24 9 13 1014.6 1012.8 0.2
25/09:00pm 13.4 9.1 7.0 65 3.2 WSW 19 22 10 12 1014.5 1012.7 0.2
25/08:30pm 13.8 9.5 6.9 63 3.5 WSW 19 24 10 13 1014.3 1012.4 0.2

Other Formats:

Comma delimited format used in spreadsheet applications
http://www.bom.gov.au/fwo/IDQ60801/IDQ60801.95551.axf

JavaScript Object Notation format (JSON) in row-major order
http://www.bom.gov.au/fwo/IDQ60801/IDQ60801.95551.json